Time;durP1;ratioP1;P1;durP2;ratioP2;P2;SDS_P1;SDS_P2;PMS_P1;PMS_P2;Temp;Humidity;BMP_temperature;BMP_pressure;BME280_temperature;BME280_humidity;BME280_pressure;Samples;Min_cycle;Max_cycle;Signal;HPM_P1;HPM_P2
2022/09/01 00:02:07;;;;;;;6.25;1.92;;;;;;;13.83;84.31;101175.45;1621606;88;21014;-75
2022/09/01 00:04:37;;;;;;;4.33;1.98;;;;;;;13.82;84.34;101173.72;1658470;86;21046;-75
2022/09/01 00:07:07;;;;;;;3.92;2.10;;;;;;;13.84;84.53;101174.53;1666926;85;21055;-75
2022/09/01 00:09:35;;;;;;;5.50;1.85;;;;;;;13.87;84.68;101170.91;1666500;86;21153;-75
2022/09/01 00:12:05;;;;;;;5.30;1.90;;;;;;;13.88;84.65;101167.81;1666302;86;21059;-75
2022/09/01 00:14:36;;;;;;;5.30;1.90;;;;;;;13.87;84.32;101164.80;1666754;86;21583;-75
2022/09/01 00:17:07;;;;;;;4.15;2.05;;;;;;;13.86;84.41;101162.63;1666366;86;21071;-75
2022/09/01 00:19:35;;;;;;;5.10;1.87;;;;;;;13.84;84.27;101165.30;1666734;86;21200;-74
2022/09/01 00:22:03;;;;;;;4.95;1.98;;;;;;;13.83;84.32;101163.59;1666589;85;21129;-75
2022/09/01 00:24:31;;;;;;;4.30;2.08;;;;;;;13.83;84.29;101161.42;1666360;86;21011;-75
2022/09/01 00:26:59;;;;;;;4.33;1.80;;;;;;;13.82;84.50;101167.59;1666631;86;21048;-75
2022/09/01 00:29:26;;;;;;;3.65;2.12;;;;;;;13.83;84.51;101167.55;1666710;86;21062;-75
2022/09/01 00:31:53;;;;;;;4.37;2.40;;;;;;;13.81;84.52;101168.52;1666370;86;21042;-75
2022/09/01 00:34:21;;;;;;;3.40;2.07;;;;;;;13.80;84.56;101170.73;1666580;86;21121;-75
2022/09/01 00:36:48;;;;;;;4.55;2.17;;;;;;;13.80;84.74;101168.10;1666437;86;21063;-75
2022/09/01 00:39:15;;;;;;;3.98;2.05;;;;;;;13.82;84.97;101174.18;1666532;86;21023;-75
2022/09/01 00:41:43;;;;;;;3.05;2.05;;;;;;;13.83;84.84;101172.82;1666494;86;21067;-75
2022/09/01 00:44:15;;;;;;;3.67;2.00;;;;;;;13.84;85.02;101174.53;1666477;85;21066;-75
2022/09/01 00:46:48;;;;;;;6.58;2.08;;;;;;;13.84;85.17;101165.77;1666330;86;21588;-75
2022/09/01 00:49:29;;;;;;;3.47;1.85;;;;;;;13.83;85.16;101168.87;1666264;86;21011;-75
2022/09/01 00:52:01;;;;;;;6.03;1.98;;;;;;;13.87;85.43;101171.38;1666373;86;21500;-75
2022/09/01 00:54:33;;;;;;;4.20;2.22;;;;;;;13.87;85.18;101167.42;1666338;85;21509;-75
2022/09/01 00:57:03;;;;;;;6.40;1.92;;;;;;;13.86;85.34;101163.94;1666304;86;21484;-74
2022/09/01 00:59:31;;;;;;;19.75;2.80;;;;;;;13.88;85.19;101169.13;1666635;86;21130;-74
2022/09/01 01:01:58;;;;;;;3.15;1.75;;;;;;;13.91;85.20;101167.69;1666218;86;21134;-75
2022/09/01 01:04:26;;;;;;;2.22;1.47;;;;;;;13.92;85.17;101165.02;1628844;87;21089;-75
2022/09/01 01:07:01;;;;;;;6.22;1.85;;;;;;;13.95;85.26;101159.63;1666544;86;21015;-75
2022/09/01 01:09:32;;;;;;;3.45;1.70;;;;;;;13.98;85.20;101158.64;1648228;86;21074;-74
2022/09/01 01:12:01;;;;;;;6.58;2.30;;;;;;;14.01;85.60;101154.10;1666532;85;21980;-75
2022/09/01 01:14:31;;;;;;;3.92;2.30;;;;;;;14.07;85.58;101158.27;1666648;86;21058;-75
2022/09/01 01:16:59;;;;;;;10.32;1.72;;;;;;;14.13;85.68;101161.12;1666283;85;21020;-74
2022/09/01 01:23:04;;;;;;;6.37;2.17;;;;;;;14.20;85.65;101158.19;1666361;86;21058;-75
2022/09/01 01:25:49;;;;;;;4.60;1.72;;;;;;;14.21;85.70;101158.58;1666316;85;21990;-74
2022/09/01 01:28:29;;;;;;;6.78;2.27;;;;;;;14.22;85.49;101160.78;1666522;86;20996;-74
2022/09/01 01:31:04;;;;;;;5.70;2.20;;;;;;;14.19;85.40;101167.03;1666284;85;21011;-75
2022/09/01 01:33:40;;;;;;;3.70;1.87;;;;;;;14.21;85.64;101163.85;1654819;85;21281;-75
2022/09/01 01:36:31;;;;;;;4.05;1.95;;;;;;;14.26;85.71;101159.72;1666230;86;21094;-75
2022/09/01 01:38:52;;;;;;;6.42;3.08;;;;;;;14.28;85.46;101164.02;1668375;85;21114;-75
2022/09/01 01:41:20;;;;;;;8.48;2.40;;;;;;;14.26;85.37;101151.81;1666204;86;21019;-74
2022/09/01 01:43:49;;;;;;;5.15;2.35;;;;;;;14.26;85.12;101156.62;1624721;86;21140;-74
2022/09/01 01:46:18;;;;;;;4.85;1.70;;;;;;;14.27;84.75;101156.16;1625031;88;21088;-75
2022/09/01 01:48:46;;;;;;;4.97;2.05;;;;;;;14.25;84.60;101154.06;1625180;87;21038;-74
2022/09/01 01:51:13;;;;;;;3.30;2.00;;;;;;;14.23;84.61;101159.38;1624932;88;21222;-75
2022/09/01 01:53:40;;;;;;;6.15;2.40;;;;;;;14.22;84.37;101155.51;1624779;88;21065;-75
2022/09/01 01:56:08;;;;;;;3.80;2.08;;;;;;;14.18;84.20;101153.90;1624874;87;21474;-75
2022/09/01 01:58:36;;;;;;;4.05;1.92;;;;;;;14.17;84.62;101156.14;1666761;86;21129;-75
2022/09/01 02:01:05;;;;;;;3.42;1.98;;;;;;;14.18;84.80;101150.80;1624745;87;21057;-74
2022/09/01 02:03:37;;;;;;;7.87;2.30;;;;;;;14.20;84.97;101158.66;1624756;87;21551;-74
2022/09/01 02:06:06;;;;;;;5.55;2.33;;;;;;;14.20;84.83;101156.88;1666204;85;21007;-75
2022/09/01 02:08:36;;;;;;;4.33;1.85;;;;;;;14.18;84.80;101151.27;1666333;86;21059;-75
2022/09/01 02:11:05;;;;;;;4.75;2.20;;;;;;;14.17;84.85;101151.73;1666293;86;21003;-75
2022/09/01 02:13:34;;;;;;;4.53;2.22;;;;;;;14.18;84.93;101152.11;1666371;86;21624;-75
2022/09/01 02:16:12;;;;;;;4.22;2.02;;;;;;;14.18;84.85;101146.84;1624922;88;21183;-74
2022/09/01 02:18:48;;;;;;;7.87;1.98;;;;;;;14.17;85.00;101153.52;1666522;86;21031;-74
2022/09/01 02:21:19;;;;;;;2.83;1.82;;;;;;;14.17;84.95;101153.52;1624675;88;21033;-74
2022/09/01 02:23:58;;;;;;;3.05;2.02;;;;;;;14.16;85.10;101150.02;1665586;86;21525;-75
2022/09/01 02:26:26;;;;;;;4.97;2.33;;;;;;;14.16;85.10;101149.14;1665983;85;21091;-75
2022/09/01 02:28:52;;;;;;;4.95;2.50;;;;;;;14.15;85.11;101146.97;1666375;85;21283;-74
2022/09/01 02:31:21;;;;;;;6.20;2.25;;;;;;;14.16;85.34;101150.02;1624591;88;21065;-74
2022/09/01 02:33:49;;;;;;;3.90;2.50;;;;;;;14.17;85.17;101146.92;1617653;88;21079;-74
2022/09/01 02:36:19;;;;;;;3.25;2.00;;;;;;;14.17;85.06;101146.92;1617390;88;21075;-75
2022/09/01 02:38:47;;;;;;;3.80;1.90;;;;;;;14.15;85.06;101143.02;1617661;88;21091;-75
2022/09/01 02:41:18;;;;;;;8.28;2.08;;;;;;;14.16;84.95;101143.86;1617390;88;21554;-75
2022/09/01 02:43:45;;;;;;;2.87;2.00;;;;;;;14.13;84.87;101138.72;1617510;88;21079;-75
2022/09/01 02:46:14;;;;;;;4.83;2.25;;;;;;;14.12;85.14;101139.65;1636008;85;21064;-75
2022/09/01 02:48:44;;;;;;;5.08;1.95;;;;;;;14.11;85.12;101139.27;1636045;85;21012;-75
2022/09/01 02:51:19;;;;;;;4.37;2.12;;;;;;;14.08;85.22;101141.56;1617719;87;21074;-75
2022/09/01 02:53:50;;;;;;;4.40;2.33;;;;;;;14.09;85.39;101137.14;1635995;87;21144;-75
2022/09/01 02:56:17;;;;;;;4.85;2.05;;;;;;;14.10;85.38;101141.48;1636167;85;21094;-74
2022/09/01 02:58:45;;;;;;;4.05;2.30;;;;;;;14.11;85.47;101140.11;1636116;87;21635;-74
2022/09/01 03:01:19;;;;;;;4.53;2.20;;;;;;;14.12;85.41;101144.45;1635980;85;21078;-75
2022/09/01 03:03:49;;;;;;;4.37;2.20;;;;;;;14.12;85.34;101135.70;1636391;85;21126;-75
2022/09/01 03:06:18;;;;;;;4.00;2.58;;;;;;;14.12;85.39;101140.50;1636143;85;21898;-75
2022/09/01 03:08:46;;;;;;;4.42;2.22;;;;;;;14.12;85.45;101142.28;1636287;85;21036;-74
2022/09/01 03:11:13;;;;;;;4.40;2.30;;;;;;;14.11;85.51;101137.95;1636161;87;21019;-75
2022/09/01 03:13:41;;;;;;;5.50;2.40;;;;;;;14.11;85.60;101138.80;1636527;85;21070;-75
2022/09/01 03:16:10;;;;;;;4.67;2.25;;;;;;;14.10;85.52;101142.80;1636140;87;21628;-75
2022/09/01 03:18:38;;;;;;;5.58;2.50;;;;;;;14.10;85.77;101138.84;1636235;87;21133;-75
2022/09/01 03:21:07;;;;;;;12.03;3.42;;;;;;;14.09;85.67;101136.67;1635944;85;21650;-75
2022/09/01 03:23:36;;;;;;;4.67;2.45;;;;;;;14.08;85.95;101144.19;1636202;85;21126;-75
2022/09/01 03:26:04;;;;;;;5.42;2.92;;;;;;;14.12;86.05;101142.28;1636183;85;21035;-75
2022/09/01 03:28:33;;;;;;;3.58;2.37;;;;;;;14.13;86.15;101143.52;1636403;85;21289;-74
2022/09/01 03:31:00;;;;;;;4.78;2.65;;;;;;;14.14;85.96;101141.77;1636011;85;21247;-75
2022/09/01 03:33:31;;;;;;;6.08;2.60;;;;;;;14.16;86.03;101147.81;1636297;85;21024;-75
2022/09/01 03:35:59;;;;;;;4.47;2.52;;;;;;;14.14;86.02;101142.63;1636204;85;21556;-75
2022/09/01 03:38:26;;;;;;;6.47;2.50;;;;;;;14.15;85.96;101138.20;1636312;85;21039;-75
2022/09/01 03:41:00;;;;;;;6.05;2.50;;;;;;;14.19;86.05;101141.10;1636163;87;21063;-75
2022/09/01 03:43:31;;;;;;;4.75;2.62;;;;;;;14.18;85.89;101140.25;1617791;88;21130;-75
2022/09/01 03:45:59;;;;;;;6.25;2.60;;;;;;;14.19;85.79;101141.10;1602830;88;21522;-75
2022/09/01 03:48:30;;;;;;;3.95;2.33;;;;;;;14.18;85.80;101142.03;1588459;88;21060;-75
2022/09/01 03:51:01;;;;;;;5.35;2.58;;;;;;;14.19;85.75;101139.78;1588674;88;21083;-75
2022/09/01 03:53:36;;;;;;;4.50;2.45;;;;;;;14.18;85.56;101145.98;1614937;88;21502;-75
2022/09/01 03:56:03;;;;;;;4.17;2.47;;;;;;;14.15;85.58;101140.84;1597051;88;21122;-75
2022/09/01 03:58:31;;;;;;;5.92;2.30;;;;;;;14.13;85.66;101147.94;1614626;88;21023;-75
2022/09/01 04:01:01;;;;;;;6.53;2.20;;;;;;;14.14;85.84;101153.17;1595033;88;21064;-75
2022/09/01 04:03:31;;;;;;;;;;;;;;;14.12;85.68;101148.41;1617040;88;21119;-75
2022/09/01 04:06:01;;;;;;;4.70;2.10;;;;;;;14.09;85.76;101147.22;1614901;88;20456;-75
2022/09/01 04:08:33;;;;;;;3.53;2.50;;;;;;;14.07;85.80;101156.95;1614977;88;21151;-75
2022/09/01 04:11:03;;;;;;;5.92;2.35;;;;;;;14.05;85.75;101154.40;1614712;88;21080;-75
2022/09/01 04:13:38;;;;;;;4.42;2.40;;;;;;;14.02;85.82;101155.84;1614982;88;21466;-75
2022/09/01 04:18:03;;;;;;;5.42;2.40;;;;;;;14.03;86.01;101152.73;1614830;88;22134;-75
2022/09/01 04:18:39;;;;;;;5.47;2.77;;;;;;;14.03;85.92;101147.47;1612331;88;21076;-75
2022/09/01 04:21:06;;;;;;;6.95;2.77;;;;;;;14.00;85.67;101141.86;1615042;88;21114;-75
2022/09/01 04:23:35;;;;;;;4.83;2.55;;;;;;;13.99;85.76;101149.34;1614686;88;21080;-75
2022/09/01 04:26:10;;;;;;;4.97;2.62;;;;;;;13.99;86.01;101147.17;1614756;88;21048;-75
2022/09/01 04:28:45;;;;;;;4.87;2.50;;;;;;;13.97;86.04;101144.61;1615021;88;21040;-75
2022/09/01 04:31:19;;;;;;;7.87;2.65;;;;;;;13.96;86.19;101144.19;1592442;88;21591;-75
2022/09/01 04:33:51;;;;;;;9.13;2.67;;;;;;;13.96;86.40;101143.34;1608891;88;21130;-75
2022/09/01 04:36:26;;;;;;;5.87;2.58;;;;;;;13.96;86.40;101144.19;1617165;87;21123;-75
2022/09/01 04:38:56;;;;;;;7.10;2.45;;;;;;;13.98;86.56;101146.31;1617230;87;21064;-75
2022/09/01 04:41:32;;;;;;;4.80;2.40;;;;;;;13.97;86.41;101153.84;1617370;87;21076;-75
2022/09/01 04:44:03;;;;;;;4.65;2.45;;;;;;;13.97;86.35;101161.75;1617247;87;21060;-75
2022/09/01 04:46:36;;;;;;;5.00;2.27;;;;;;;13.94;86.42;101159.23;1658387;84;21193;-75
2022/09/01 04:49:09;;;;;;;3.75;2.30;;;;;;;13.94;86.49;101159.66;1666195;86;21013;-75
2022/09/01 04:51:45;;;;;;;4.33;2.65;;;;;;;13.93;86.59;101157.96;1666480;84;21042;-75
2022/09/01 04:54:15;;;;;;;3.77;2.27;;;;;;;13.95;86.69;101161.41;1624878;88;21531;-75
2022/09/01 04:56:51;;;;;;;4.00;2.47;;;;;;;13.95;86.72;101164.89;1622981;87;21611;-79
2022/09/01 04:59:22;;;;;;;4.37;2.52;;;;;;;13.98;86.74;101165.23;1622481;88;21243;-81
2022/09/01 05:01:54;;;;;;;4.58;2.80;;;;;;;14.02;86.84;101161.11;1663894;85;21046;-82
2022/09/01 05:04:26;;;;;;;6.67;2.75;;;;;;;14.04;86.78;101160.57;1663732;85;21046;-87
2022/09/01 05:06:59;;;;;;;11.15;2.67;;;;;;;14.06;86.83;101157.42;1664021;85;21075;-84
2022/09/01 05:09:34;;;;;;;7.37;2.55;;;;;;;14.12;86.76;101167.33;1663343;85;21062;-83
2022/09/01 05:12:15;;;;;;;2.80;2.20;;;;;;;14.13;86.83;101157.17;1662651;85;21548;-81
2022/09/01 05:14:47;;;;;;;3.20;2.37;;;;;;;14.16;86.76;101162.32;1663796;85;21570;-83
2022/09/01 05:17:16;;;;;;;5.05;2.42;;;;;;;14.19;86.84;101164.83;1663739;85;21579;-80
2022/09/01 05:19:46;;;;;;;4.85;2.50;;;;;;;14.24;86.92;101164.19;1663798;85;21058;-79
2022/09/01 05:22:16;;;;;;;5.00;2.35;;;;;;;14.25;86.70;101154.06;1622489;88;21072;-78
2022/09/01 05:24:45;;;;;;;4.33;2.33;;;;;;;14.24;86.69;101158.92;1662521;85;21139;-79
2022/09/01 05:27:14;;;;;;;3.83;2.50;;;;;;;14.24;86.56;101165.08;1663955;85;21050;-76
2022/09/01 05:29:44;;;;;;;;;;;;;;;14.28;86.74;101167.97;1666178;85;21099;-81
2022/09/01 05:32:11;;;;;;;4.12;2.12;;;;;;;14.33;86.88;101169.12;1663902;86;20199;-81
2022/09/01 05:34:42;;;;;;;4.15;2.45;;;;;;;14.37;86.67;101162.78;1622234;87;21137;-77
2022/09/01 05:37:11;;;;;;;5.30;2.40;;;;;;;14.37;86.26;101161.47;1614994;88;21130;-76
2022/09/01 05:39:38;;;;;;;3.23;2.13;;;;;;;14.38;86.00;101170.23;1615185;88;21135;-78
2022/09/01 05:42:09;;;;;;;2.87;2.17;;;;;;;14.38;85.91;101168.91;1614922;87;21039;-76
2022/09/01 05:44:42;;;;;;;5.37;2.08;;;;;;;14.37;85.66;101173.80;1615143;87;21084;-77
2022/09/01 05:47:12;;;;;;;3.45;2.12;;;;;;;14.35;85.57;101171.20;1664235;84;21078;-76
2022/09/01 05:49:39;;;;;;;3.55;2.05;;;;;;;14.36;85.58;101165.03;1663923;86;21792;-77
2022/09/01 05:52:08;;;;;;;4.15;2.20;;;;;;;14.38;85.68;101167.59;1663499;85;21046;-80
2022/09/01 05:54:36;;;;;;;4.40;2.30;;;;;;;14.40;85.55;101169.25;1663937;86;21059;-77
2022/09/01 05:57:06;;;;;;;5.22;2.35;;;;;;;14.44;85.75;101169.54;1663534;86;21054;-78
2022/09/01 05:59:33;;;;;;;4.22;2.00;;;;;;;14.49;85.82;101166.69;1663919;85;21350;-78
2022/09/01 06:02:08;;;;;;;4.30;2.20;;;;;;;14.55;85.57;101164.30;1663236;85;21151;-77
2022/09/01 06:04:42;;;;;;;4.35;1.92;;;;;;;14.57;85.24;101170.38;1662407;84;21070;-76
2022/09/01 06:07:13;;;;;;;4.87;2.20;;;;;;;14.59;85.35;101167.22;1663276;85;22103;-77
2022/09/01 06:09:46;;;;;;;4.67;2.05;;;;;;;14.65;85.42;101165.64;1663594;85;21070;-79
2022/09/01 06:12:19;;;;;;;4.58;2.05;;;;;;;14.72;85.49;101173.23;1663693;84;21086;-77
2022/09/01 06:14:48;;;;;;;5.10;2.33;;;;;;;14.81;85.24;101175.09;1663609;84;21110;-78
2022/09/01 06:17:23;;;;;;;3.70;2.30;;;;;;;14.85;85.45;101172.24;1663365;86;21074;-77
2022/09/01 06:19:55;;;;;;;4.70;1.72;;;;;;;14.93;85.43;101176.73;1663575;85;21083;-77
2022/09/01 06:22:25;;;;;;;2.87;1.90;;;;;;;15.02;85.39;101179.91;1622003;86;21145;-78
2022/09/01 06:24:54;;;;;;;6.10;2.10;;;;;;;15.07;85.24;101174.81;1663072;84;21073;-78
2022/09/01 06:27:22;;;;;;;3.42;1.85;;;;;;;15.13;84.93;101173.69;1663499;84;21086;-78
2022/09/01 06:29:55;;;;;;;4.17;1.60;;;;;;;15.18;85.08;101173.03;1642560;85;20939;-80
2022/09/01 06:32:19;;;;;;;3.98;1.80;;;;;;;15.28;85.24;101178.78;1672629;85;21073;-80
2022/09/01 06:34:49;;;;;;;3.20;1.77;;;;;;;15.33;85.14;101171.05;1672564;85;21070;-78
2022/09/01 06:37:21;;;;;;;3.15;1.65;;;;;;;15.42;84.79;101186.09;1672977;85;21138;-78
2022/09/01 06:39:45;;;;;;;3.92;1.40;;;;;;;15.48;84.68;101184.02;1669787;85;21091;-80
2022/09/01 06:42:14;;;;;;;1.67;1.10;;;;;;;15.56;84.53;101181.89;1621400;86;21559;-78
2022/09/01 06:44:46;;;;;;;3.70;1.40;;;;;;;15.64;84.52;101180.70;1662736;85;21042;-78
2022/09/01 06:47:14;;;;;;;2.90;1.40;;;;;;;15.73;84.50;101186.91;1662870;84;21472;-78
2022/09/01 06:49:41;;;;;;;3.33;1.47;;;;;;;15.81;84.31;101187.41;1663384;85;21484;-78
2022/09/01 06:52:10;;;;;;;3.17;1.70;;;;;;;15.86;83.81;101189.39;1662728;84;21153;-79
2022/09/01 06:54:38;;;;;;;2.72;1.35;;;;;;;15.90;83.70;101196.23;1673498;85;21066;-77
2022/09/01 06:57:06;;;;;;;2.17;1.10;;;;;;;15.96;83.68;101201.26;1673051;85;21684;-78
2022/09/01 06:59:33;;;;;;;3.05;1.40;;;;;;;16.02;83.09;101200.11;1621700;86;21045;-81
2022/09/01 07:02:02;;;;;;;4.67;1.10;;;;;;;16.14;82.70;101192.06;1660312;84;21619;-80
2022/09/01 07:04:31;;;;;;;4.12;1.50;;;;;;;16.14;82.70;101192.06;1663436;85;21102;-77
2022/09/01 07:07:03;;;;;;;3.60;1.00;;;;;;;16.17;82.26;101190.11;1664420;85;21055;-77
2022/09/01 07:09:31;;;;;;;2.60;0.90;;;;;;;16.21;82.22;101191.70;1657507;84;21056;-77
2022/09/01 07:12:07;;;;;;;2.83;1.05;;;;;;;16.37;82.54;101189.63;1645355;84;21078;-77
2022/09/01 07:14:35;;;;;;;6.87;1.30;;;;;;;16.37;82.54;101189.63;1613044;86;21055;-78
2022/09/01 07:17:03;;;;;;;2.70;1.10;;;;;;;16.44;81.91;101187.08;1607094;87;21139;-80
2022/09/01 07:19:30;;;;;;;2.35;1.05;;;;;;;16.50;81.73;101194.70;1638790;84;21702;-78
2022/09/01 07:21:59;;;;;;;2.75;1.50;;;;;;;16.56;81.51;101190.43;1655320;86;21031;-76
2022/09/01 07:24:28;;;;;;;6.78;1.50;;;;;;;16.63;81.52;101189.68;1646198;85;20986;-80
2022/09/01 07:27:13;;;;;;;3.42;1.42;;;;;;;16.71;81.77;101191.01;1654197;85;21026;-77
2022/09/01 07:29:41;;;;;;;2.67;1.52;;;;;;;16.81;81.40;101198.04;1639115;84;21099;-78
2022/09/01 07:32:09;;;;;;;2.83;1.20;;;;;;;16.86;81.34;101193.37;1665134;86;21001;-77
2022/09/01 07:34:37;;;;;;;5.42;1.45;;;;;;;16.89;80.94;101190.56;1624561;88;21037;-77
2022/09/01 07:37:06;;;;;;;4.08;1.40;;;;;;;17.02;81.01;101190.80;1666553;86;21122;-77
2022/09/01 07:39:34;;;;;;;4.75;1.00;;;;;;;17.11;81.03;101194.30;1666318;86;21058;-77
2022/09/01 07:42:10;;;;;;;2.47;1.00;;;;;;;17.21;80.87;101196.02;1663717;85;21962;-77
2022/09/01 07:44:43;;;;;;;3.22;1.07;;;;;;;17.29;80.36;101191.17;1624549;85;21067;-77
2022/09/01 07:47:30;;;;;;;2.08;0.85;;;;;;;17.37;80.18;101194.25;1665968;85;21511;-79
2022/09/01 07:49:59;;;;;;;3.50;0.50;;;;;;;17.49;79.98;101201.19;1676605;85;21050;-78
2022/09/01 07:52:26;;;;;;;1.82;0.80;;;;;;;17.59;79.19;101199.27;1668302;85;21071;-79
2022/09/01 07:54:55;;;;;;;0.85;0.30;;;;;;;17.73;79.15;101205.15;1624967;87;21147;-77
2022/09/01 07:57:22;;;;;;;1.05;0.55;;;;;;;17.80;77.98;101205.25;1624807;88;21089;-77
2022/09/01 07:59:52;;;;;;;3.27;0.60;;;;;;;17.86;77.84;101205.38;1624822;87;21546;-77
2022/09/01 08:02:20;;;;;;;1.82;0.70;;;;;;;17.92;77.34;101209.02;1666444;86;21066;-77
2022/09/01 08:04:48;;;;;;;1.75;0.65;;;;;;;17.96;77.10;101207.08;1666109;86;21046;-77
2022/09/01 08:07:15;;;;;;;1.27;0.60;;;;;;;17.99;76.61;101205.58;1624826;88;21973;-78
2022/09/01 08:09:43;;;;;;;1.77;0.80;;;;;;;18.00;76.11;101210.78;1666262;86;21035;-77
2022/09/01 08:12:12;;;;;;;2.35;0.80;;;;;;;17.98;75.32;101217.95;1624984;88;21496;-77
2022/09/01 08:14:40;;;;;;;1.10;0.50;;;;;;;17.96;74.75;101217.20;1664877;85;21058;-77
2022/09/01 08:17:08;;;;;;;1.30;0.80;;;;;;;18.00;75.02;101212.58;1666213;86;21066;-78
2022/09/01 08:19:36;;;;;;;1.15;0.88;;;;;;;18.09;75.21;101212.06;1624535;88;21101;-77
2022/09/01 08:22:05;;;;;;;2.72;0.85;;;;;;;18.19;75.47;101213.75;1664406;85;21070;-80
2022/09/01 08:24:37;;;;;;;3.58;0.75;;;;;;;18.25;74.94;101219.55;1624167;87;21085;-77
2022/09/01 08:27:04;;;;;;;0.93;0.40;;;;;;;18.27;74.47;101222.14;1666324;86;21067;-77
2022/09/01 08:29:32;;;;;;;2.75;0.75;;;;;;;18.30;74.42;101225.09;1666348;86;21003;-77
2022/09/01 08:31:59;;;;;;;2.83;0.62;;;;;;;18.28;73.80;101223.84;1665943;86;21980;-77
2022/09/01 08:34:26;;;;;;;1.50;0.60;;;;;;;18.30;73.87;101224.61;1624640;88;21064;-77
2022/09/01 08:36:54;;;;;;;1.30;0.60;;;;;;;18.38;74.10;101225.04;1624615;88;21072;-77
2022/09/01 08:39:22;;;;;;;1.87;0.62;;;;;;;18.45;73.79;101217.57;1624648;87;21086;-77
2022/09/01 08:42:15;;;;;;;2.60;0.80;;;;;;;18.44;72.96;101218.05;1624569;87;21038;-78
2022/09/01 08:44:54;;;;;;;2.30;0.82;;;;;;;18.46;73.00;101219.30;1666021;86;21201;-77
2022/09/01 08:47:21;;;;;;;1.65;0.70;;;;;;;18.48;73.03;101215.63;1666183;85;21474;-77
2022/09/01 08:49:50;;;;;;;1.75;0.70;;;;;;;18.55;72.73;101216.59;1666303;86;21520;-77
2022/09/01 08:52:36;;;;;;;1.65;0.82;;;;;;;18.65;72.71;101215.98;1631549;86;21086;-77
2022/09/01 08:55:26;;;;;;;8.48;1.17;;;;;;;18.78;72.37;101214.80;1666369;86;21451;-77
2022/09/01 08:57:59;;;;;;;1.98;0.70;;;;;;;18.88;71.86;101218.64;1666212;86;21137;-77
2022/09/01 09:00:35;;;;;;;2.05;0.60;;;;;;;18.98;71.16;101209.64;1666168;85;21517;-77
2022/09/01 09:03:40;;;;;;;2.25;0.53;;;;;;;19.03;70.91;101210.70;1666002;85;21063;-78
2022/09/01 09:06:25;;;;;;;0.85;0.40;;;;;;;19.11;70.98;101211.11;1665180;85;21031;-79
2022/09/01 09:09:02;;;;;;;2.55;0.65;;;;;;;19.17;70.41;101212.06;1665219;85;21111;-77
2022/09/01 09:12:03;;;;;;;2.05;0.55;;;;;;;19.14;70.19;101216.23;1666141;86;21681;-77
2022/09/01 09:14:42;;;;;;;1.45;0.70;;;;;;;19.07;69.82;101221.55;1666296;85;21072;-77
2022/09/01 09:17:12;;;;;;;1.62;0.70;;;;;;;18.97;68.91;101221.22;1665755;85;21008;-77
2022/09/01 09:19:42;;;;;;;1.22;0.60;;;;;;;18.88;68.90;101221.78;1666511;86;21142;-77
2022/09/01 09:22:18;;;;;;;2.05;0.70;;;;;;;18.82;69.09;101221.66;1666243;86;21555;-77
2022/09/01 09:25:01;;;;;;;2.30;0.65;;;;;;;18.82;69.44;101223.47;1666086;86;21210;-77
2022/09/01 09:27:38;;;;;;;2.22;0.60;;;;;;;18.75;69.15;101221.62;1666063;85;21035;-77
2022/09/01 09:30:12;;;;;;;3.83;1.05;;;;;;;18.71;69.38;101221.41;1666305;86;21567;-77
2022/09/01 09:33:04;;;;;;;1.90;0.60;;;;;;;18.76;69.72;101211.41;1666159;85;21023;-77
2022/09/01 09:35:41;;;;;;;1.52;0.80;;;;;;;18.92;69.92;101208.68;1642318;86;21062;-77
2022/09/01 09:41:09;;;;;;;1.47;0.50;;;;;;;19.32;69.46;101211.62;1648030;86;21047;-77
2022/09/01 09:43:51;;;;;;;3.52;0.65;;;;;;;19.35;68.54;101214.09;1665071;85;21062;-77
2022/09/01 09:46:29;;;;;;;2.10;0.55;;;;;;;19.33;68.22;101208.01;1664926;85;21070;-77
2022/09/01 09:49:13;;;;;;;2.30;0.45;;;;;;;19.29;68.06;101209.16;1653961;86;21062;-77
2022/09/01 09:51:44;;;;;;;1.07;0.53;;;;;;;19.29;67.92;101213.14;1666233;85;21124;-77
2022/09/01 09:54:21;;;;;;;0.70;0.33;;;;;;;19.31;67.88;101208.09;1666121;85;21019;-77
2022/09/01 09:57:13;;;;;;;2.52;0.70;;;;;;;19.44;67.56;101210.02;1675247;85;21050;-77
2022/09/01 09:59:57;;;;;;;1.67;0.50;;;;;;;19.66;67.11;101199.79;1674223;85;21078;-78
2022/09/01 10:02:33;;;;;;;1.95;0.50;;;;;;;19.97;67.18;101199.19;1663847;85;21055;-77
2022/09/01 10:05:22;;;;;;;2.12;0.75;;;;;;;20.31;66.62;101209.83;1666127;86;21143;-77
2022/09/01 10:07:50;;;;;;;2.08;0.62;;;;;;;20.59;66.22;101206.72;1644182;85;21067;-77
2022/09/01 10:10:49;;;;;;;1.90;0.50;;;;;;;20.89;65.76;101202.00;1668199;85;21426;-77
2022/09/01 10:13:20;;;;;;;0.78;0.50;;;;;;;21.14;64.71;101199.88;1666547;86;21082;-78
2022/09/01 10:15:57;;;;;;;1.72;0.70;;;;;;;21.50;64.58;101201.44;1664592;86;21019;-77
2022/09/01 10:18:38;;;;;;;1.72;0.50;;;;;;;21.77;64.01;101199.48;1638319;86;21982;-77
2022/09/01 10:21:17;;;;;;;1.67;0.45;;;;;;;21.98;63.51;101198.44;1666139;86;20920;-77
2022/09/01 10:23:44;;;;;;;0.82;0.47;;;;;;;22.27;63.12;101200.83;1665619;85;21074;-77
2022/09/01 10:26:25;;;;;;;0.70;0.50;;;;;;;22.56;62.24;101193.34;1666038;86;21012;-77
2022/09/01 10:29:15;;;;;;;1.05;0.30;;;;;;;22.85;61.39;101189.78;1665297;85;21115;-77
2022/09/01 10:31:42;;;;;;;1.52;0.50;;;;;;;23.03;60.24;101181.34;1665991;86;21155;-77
2022/09/01 10:34:16;;;;;;;0.75;0.30;;;;;;;23.16;59.74;101178.94;1666451;86;21111;-77
2022/09/01 10:36:45;;;;;;;1.27;0.50;;;;;;;23.35;59.27;101185.05;1665715;85;21054;-77
2022/09/01 10:39:16;;;;;;;1.07;0.30;;;;;;;23.55;58.82;101183.47;1666251;86;21539;-77
2022/09/01 10:41:56;;;;;;;7.17;1.52;;;;;;;23.54;57.74;101180.93;1666143;86;21103;-77
2022/09/01 10:44:37;;;;;;;2.00;0.68;;;;;;;23.44;57.23;101187.48;1624735;88;21829;-77
2022/09/01 10:47:28;;;;;;;3.65;0.57;;;;;;;23.32;56.97;101187.97;1626918;86;21617;-77
2022/09/01 10:50:06;;;;;;;2.12;0.65;;;;;;;23.37;56.64;101182.27;1628644;88;21067;-77
2022/09/01 10:52:48;;;;;;;0.90;0.50;;;;;;;23.27;56.39;101188.80;1627198;88;21028;-78
2022/09/01 10:55:38;;;;;;;0.98;0.40;;;;;;;23.44;56.12;101185.30;1629331;87;21055;-77
2022/09/01 10:58:30;;;;;;;1.55;0.40;;;;;;;23.64;55.75;101183.25;1612906;88;21124;-77
2022/09/01 11:00:59;;;;;;;1.20;0.40;;;;;;;23.44;54.95;101188.81;1619708;87;21053;-77
2022/09/01 11:03:40;;;;;;;1.85;0.47;;;;;;;23.16;54.39;101194.98;1619911;88;21576;-77
2022/09/01 11:06:09;;;;;;;1.70;0.40;;;;;;;22.84;54.31;101200.12;1613292;88;21572;-77
2022/09/01 11:08:47;;;;;;;2.75;0.70;;;;;;;22.47;54.47;101195.34;1619856;88;25818;-77
2022/09/01 11:11:41;;;;;;;1.15;0.47;;;;;;;22.25;54.77;101197.41;1618993;88;21133;-77
2022/09/01 11:14:25;;;;;;;1.92;0.40;;;;;;;22.41;55.59;101195.80;1619681;88;20976;-77
2022/09/01 11:17:18;;;;;;;1.20;0.45;;;;;;;22.79;55.77;101190.75;1619959;88;21092;-77
2022/09/01 11:19:57;;;;;;;2.58;0.50;;;;;;;23.01;55.28;101197.52;1619824;88;21391;-77
2022/09/01 11:22:34;;;;;;;2.33;0.50;;;;;;;23.29;55.21;101196.72;1620326;87;21083;-77
2022/09/01 11:25:33;;;;;;;0.95;0.47;;;;;;;23.57;55.15;101197.58;1619901;88;21156;-77
2022/09/01 11:28:24;;;;;;;0.88;0.30;;;;;;;23.87;54.33;101193.47;1603264;88;21561;-77
2022/09/01 11:31:09;;;;;;;1.85;0.68;;;;;;;24.01;53.17;101185.17;1619819;88;21036;-77
2022/09/01 11:34:00;;;;;;;1.60;0.60;;;;;;;24.06;52.49;101179.95;1619701;87;21084;-77
2022/09/01 11:36:34;;;;;;;1.80;0.50;;;;;;;24.12;52.12;101181.63;1619920;87;21035;-77
2022/09/01 11:39:28;;;;;;;1.57;0.50;;;;;;;24.25;52.44;101185.50;1600301;88;21104;-75
2022/09/01 11:42:13;;;;;;;1.40;0.47;;;;;;;24.03;51.91;101184.56;1619921;86;21675;-83
2022/09/01 11:44:46;;;;;;;1.95;0.40;;;;;;;23.64;51.57;101187.27;1619798;86;21068;-77
2022/09/01 11:47:23;;;;;;;2.40;0.62;;;;;;;23.16;51.49;101190.13;1613542;87;21079;-80
2022/09/01 11:50:10;;;;;;;0.55;0.30;;;;;;;22.76;51.32;101189.64;1598605;86;21087;-80
2022/09/01 11:52:40;;;;;;;0.85;0.45;;;;;;;22.32;51.58;101185.32;1615320;87;21148;-78
2022/09/01 11:55:09;;;;;;;1.55;0.50;;;;;;;22.03;52.08;101186.95;1628354;86;21031;-79
2022/09/01 11:57:40;;;;;;;1.12;0.40;;;;;;;22.21;52.75;101186.11;1600687;86;21509;-78
2022/09/01 12:00:12;;;;;;;1.22;0.50;;;;;;;22.52;52.76;101183.83;1597935;87;21060;-78